Time;durP1;ratioP1;P1;durP2;ratioP2;P2;SDS_P1;SDS_P2;PMS_P1;PMS_P2;Temp;Humidity;BMP_temperature;BMP_pressure;BME280_temperature;BME280_humidity;BME280_pressure;Samples;Min_cycle;Max_cycle;Signal;HPM_P1;HPM_P2
2024/04/13 00:01:33;;;;;;;3.97;3.58;;;;;;;;;;5466703;26;20248;-71
2024/04/13 00:03:58;;;;;;;6.07;3.50;;;;;;;;;;5499821;26;20259;-70
2024/04/13 00:06:24;;;;;;;6.07;3.55;;;;;;;;;;5471570;25;20238;-70
2024/04/13 00:08:51;;;;;;;6.22;3.63;;;;;;;;;;5468087;26;20244;-70
2024/04/13 00:11:16;;;;;;;6.18;3.45;;;;;;;;;;5451150;26;20238;-70
2024/04/13 00:13:42;;;;;;;4.88;3.35;;;;;;;;;;5451592;26;20332;-71
2024/04/13 00:16:07;;;;;;;5.95;3.75;;;;;;;;;;5499232;26;20243;-72
2024/04/13 00:18:33;;;;;;;10.50;4.00;;;;;;;;;;5491323;25;20256;-72
2024/04/13 00:21:02;;;;;;;7.85;4.00;;;;;;;;;;5476385;26;20241;-71
2024/04/13 00:23:27;;;;;;;6.57;3.83;;;;;;;;;;5468325;26;20257;-71
2024/04/13 00:25:54;;;;;;;5.43;3.67;;;;;;;;;;5463213;26;20242;-71
2024/04/13 00:28:20;;;;;;;5.85;4.00;;;;;;;;;;5437715;26;20339;-71
2024/04/13 00:30:46;;;;;;;7.18;4.18;;;;;;;;;;5456484;26;20252;-71
2024/04/13 00:33:12;;;;;;;6.63;3.88;;;;;;;;;;5467718;26;21066;-70
2024/04/13 00:35:37;;;;;;;5.95;3.72;;;;;;;;;;5478034;26;20286;-72
2024/04/13 00:38:04;;;;;;;7.78;3.97;;;;;;;;;;5475381;26;20276;-71
2024/04/13 00:40:29;;;;;;;7.88;3.78;;;;;;;;;;5461515;26;20681;-71
2024/04/13 00:43:05;;;;;;;5.70;3.72;;;;;;;;;;5447699;26;20245;-71
2024/04/13 00:45:42;;;;;;;5.40;3.20;;;;;;;;;;5474400;26;20236;-71
2024/04/13 00:48:11;;;;;;;7.50;3.65;;;;;;;;;;5499465;26;20364;-71
2024/04/13 00:50:37;;;;;;;6.65;3.97;;;;;;;;;;5474690;25;20284;-71
2024/04/13 00:53:03;;;;;;;4.47;3.42;;;;;;;;;;5471713;26;20241;-72
2024/04/13 00:55:29;;;;;;;5.10;3.50;;;;;;;;;;5458980;26;20232;-71
2024/04/13 00:57:56;;;;;;;4.35;3.10;;;;;;;;;;5491385;25;20306;-71
2024/04/13 01:00:22;;;;;;;8.00;3.47;;;;;;;;;;5470435;26;20692;-71
2024/04/13 01:02:48;;;;;;;4.93;3.70;;;;;;;;;;5469357;26;20275;-71
2024/04/13 01:05:14;;;;;;;3.90;3.15;;;;;;;;;;5480917;26;20724;-71
2024/04/13 01:07:40;;;;;;;6.55;3.65;;;;;;;;;;5462131;26;20238;-70
2024/04/13 01:10:11;;;;;;;5.20;3.80;;;;;;;;;;5467831;26;20736;-72
2024/04/13 01:12:39;;;;;;;7.43;3.72;;;;;;;;;;5472798;26;20275;-71
2024/04/13 01:15:04;;;;;;;5.45;3.28;;;;;;;;;;5481560;26;20328;-71
2024/04/13 01:17:30;;;;;;;6.97;3.50;;;;;;;;;;5476479;26;20642;-71
2024/04/13 01:19:55;;;;;;;4.70;3.05;;;;;;;;;;5470225;26;20248;-71
2024/04/13 01:22:21;;;;;;;5.15;2.90;;;;;;;;;;5464237;26;20245;-71
2024/04/13 01:24:47;;;;;;;6.28;3.60;;;;;;;;;;5459277;26;20229;-71
2024/04/13 01:27:13;;;;;;;6.07;3.58;;;;;;;;;;5444426;26;20260;-71
2024/04/13 01:29:39;;;;;;;5.60;4.20;;;;;;;;;;5453758;26;20308;-71
2024/04/13 01:32:05;;;;;;;6.15;3.20;;;;;;;;;;5452326;26;20306;-71
2024/04/13 01:34:30;;;;;;;8.32;3.60;;;;;;;;;;5473476;26;20306;-71
2024/04/13 01:36:56;;;;;;;5.30;3.53;;;;;;;;;;5461515;26;20258;-71
2024/04/13 01:39:21;;;;;;;4.93;3.20;;;;;;;;;;5469740;26;20815;-71
2024/04/13 01:41:52;;;;;;;6.25;3.45;;;;;;;;;;5482698;26;20699;-71
2024/04/13 01:44:18;;;;;;;5.32;3.28;;;;;;;;;;5488893;26;20304;-71
2024/04/13 01:46:44;;;;;;;5.72;3.55;;;;;;;;;;5490049;26;20295;-71
2024/04/13 01:49:09;;;;;;;5.47;3.20;;;;;;;;;;5485411;26;20708;-71
2024/04/13 01:51:35;;;;;;;6.00;3.58;;;;;;;;;;5476132;26;20291;-72
2024/04/13 01:54:01;;;;;;;5.57;3.35;;;;;;;;;;5473209;26;20648;-71
2024/04/13 01:56:27;;;;;;;5.07;3.60;;;;;;;;;;5483418;26;20690;-71
2024/04/13 01:58:53;;;;;;;4.15;3.22;;;;;;;;;;5484753;26;20356;-71
2024/04/13 02:01:18;;;;;;;4.65;3.60;;;;;;;;;;5474682;26;20237;-71
2024/04/13 02:03:44;;;;;;;6.68;3.60;;;;;;;;;;5456393;26;20245;-72
2024/04/13 02:06:09;;;;;;;4.38;3.22;;;;;;;;;;5496214;26;20575;-71
2024/04/13 02:08:36;;;;;;;5.78;3.47;;;;;;;;;;5474113;26;20333;-71
2024/04/13 02:11:04;;;;;;;5.63;3.63;;;;;;;;;;5503932;26;20260;-72
2024/04/13 02:13:30;;;;;;;4.70;3.58;;;;;;;;;;5482468;26;20287;-71
2024/04/13 02:15:55;;;;;;;4.93;3.67;;;;;;;;;;5476515;26;20713;-71
2024/04/13 02:18:21;;;;;;;6.28;3.40;;;;;;;;;;5461184;26;20249;-71
2024/04/13 02:20:47;;;;;;;4.90;3.50;;;;;;;;;;5495293;26;20286;-71
2024/04/13 02:23:13;;;;;;;10.00;4.35;;;;;;;;;;5482869;26;20306;-71
2024/04/13 02:25:42;;;;;;;6.53;3.70;;;;;;;;;;5448582;26;20242;-72
2024/04/13 02:28:09;;;;;;;7.38;3.70;;;;;;;;;;5450584;26;20249;-72
2024/04/13 02:30:35;;;;;;;4.78;3.45;;;;;;;;;;5491347;26;20689;-71
2024/04/13 02:33:01;;;;;;;5.82;3.97;;;;;;;;;;5489477;25;20239;-71
2024/04/13 02:35:26;;;;;;;6.22;3.97;;;;;;;;;;5418826;26;20296;-72
2024/04/13 02:37:52;;;;;;;5.30;3.60;;;;;;;;;;5466914;26;20265;-72
2024/04/13 02:40:23;;;;;;;7.32;3.30;;;;;;;;;;5463586;26;20234;-71
2024/04/13 02:42:52;;;;;;;3.80;3.00;;;;;;;;;;5464669;26;20299;-71
2024/04/13 02:45:18;;;;;;;4.38;3.47;;;;;;;;;;5474857;26;21785;-72
2024/04/13 02:47:44;;;;;;;5.28;3.72;;;;;;;;;;5484863;26;20237;-72
2024/04/13 02:50:10;;;;;;;6.30;3.70;;;;;;;;;;5469837;26;20234;-72
2024/04/13 02:52:37;;;;;;;6.53;3.83;;;;;;;;;;5458338;26;20267;-71
2024/04/13 02:55:04;;;;;;;5.93;3.63;;;;;;;;;;5499465;26;20239;-72
2024/04/13 02:57:29;;;;;;;4.53;3.10;;;;;;;;;;5494697;26;20521;-71
2024/04/13 02:59:56;;;;;;;10.57;4.50;;;;;;;;;;5489206;26;20252;-71
2024/04/13 03:02:23;;;;;;;8.15;4.03;;;;;;;;;;5454979;26;20702;-72
2024/04/13 03:04:51;;;;;;;7.53;4.22;;;;;;;;;;5471064;26;20261;-72
2024/04/13 03:07:17;;;;;;;7.05;4.10;;;;;;;;;;5464801;26;20237;-71
2024/04/13 03:09:43;;;;;;;6.60;3.92;;;;;;;;;;5447825;26;20242;-71
2024/04/13 03:12:08;;;;;;;5.13;3.95;;;;;;;;;;5469383;26;20739;-71
2024/04/13 03:14:34;;;;;;;7.03;4.75;;;;;;;;;;5457394;26;20354;-72
2024/04/13 03:16:59;;;;;;;7.28;4.10;;;;;;;;;;5496152;26;20397;-71
2024/04/13 03:19:25;;;;;;;8.13;4.45;;;;;;;;;;5460273;26;20249;-71
2024/04/13 03:21:51;;;;;;;6.35;4.50;;;;;;;;;;5488205;25;20627;-71
2024/04/13 03:24:17;;;;;;;9.25;4.38;;;;;;;;;;5484034;26;20275;-71
2024/04/13 03:26:42;;;;;;;7.55;4.20;;;;;;;;;;5481552;26;20333;-71
2024/04/13 03:29:07;;;;;;;7.07;4.28;;;;;;;;;;5473599;26;20261;-71
2024/04/13 03:31:33;;;;;;;10.57;4.90;;;;;;;;;;5479706;26;20299;-71
2024/04/13 03:33:58;;;;;;;6.25;4.32;;;;;;;;;;5484862;26;20340;-71
2024/04/13 03:36:26;;;;;;;7.47;4.70;;;;;;;;;;5471106;26;20706;-71
2024/04/13 03:38:58;;;;;;;6.60;4.05;;;;;;;;;;5487014;26;20346;-71
2024/04/13 03:41:24;;;;;;;7.72;4.50;;;;;;;;;;5466849;26;20236;-71
2024/04/13 03:43:49;;;;;;;7.22;4.13;;;;;;;;;;5460662;26;20268;-71
2024/04/13 03:46:15;;;;;;;6.00;4.80;;;;;;;;;;5455487;26;20724;-71
2024/04/13 03:48:41;;;;;;;5.90;4.47;;;;;;;;;;5493149;26;20305;-71
2024/04/13 03:51:11;;;;;;;10.77;4.93;;;;;;;;;;5470096;26;20269;-71
2024/04/13 03:53:37;;;;;;;7.07;4.30;;;;;;;;;;5467304;26;20810;-71
2024/04/13 03:56:03;;;;;;;6.07;4.50;;;;;;;;;;5474342;26;20527;-71
2024/04/13 03:58:28;;;;;;;10.15;4.55;;;;;;;;;;5471587;25;20278;-71
2024/04/13 04:00:54;;;;;;;7.75;5.13;;;;;;;;;;5478724;26;20241;-71
2024/04/13 04:03:19;;;;;;;8.20;4.88;;;;;;;;;;5455861;26;20786;-71
2024/04/13 04:05:52;;;;;;;8.07;4.75;;;;;;;;;;5436297;26;20316;-71
2024/04/13 04:08:21;;;;;;;6.72;4.30;;;;;;;;;;5476047;26;20236;-71
2024/04/13 04:10:46;;;;;;;5.82;4.65;;;;;;;;;;5474794;26;20268;-71
2024/04/13 04:13:12;;;;;;;7.63;4.97;;;;;;;;;;5482235;25;20314;-71
2024/04/13 04:15:37;;;;;;;6.80;4.95;;;;;;;;;;5480784;26;20575;-72
2024/04/13 04:18:04;;;;;;;8.07;5.00;;;;;;;;;;5488144;26;20245;-71
2024/04/13 04:20:35;;;;;;;9.82;5.20;;;;;;;;;;5488266;25;20240;-71
2024/04/13 04:23:01;;;;;;;10.32;4.97;;;;;;;;;;5478261;26;20237;-71
2024/04/13 04:25:27;;;;;;;7.97;5.30;;;;;;;;;;5477072;26;20237;-71
2024/04/13 04:27:52;;;;;;;9.50;4.70;;;;;;;;;;5496588;26;20314;-71
2024/04/13 04:30:18;;;;;;;10.10;4.95;;;;;;;;;;5500623;26;20240;-71
2024/04/13 04:32:44;;;;;;;8.70;5.60;;;;;;;;;;5491320;26;20282;-72
2024/04/13 04:35:10;;;;;;;11.50;5.15;;;;;;;;;;5500981;26;20650;-72
2024/04/13 04:37:35;;;;;;;9.07;5.35;;;;;;;;;;5502073;26;20323;-72
2024/04/13 04:40:02;;;;;;;9.15;5.35;;;;;;;;;;5464808;26;20709;-72
2024/04/13 04:42:28;;;;;;;7.15;5.18;;;;;;;;;;5494955;26;20241;-72
2024/04/13 04:44:55;;;;;;;10.23;5.55;;;;;;;;;;5496618;26;20983;-72
2024/04/13 04:47:20;;;;;;;7.97;5.00;;;;;;;;;;5494748;26;20261;-72
2024/04/13 04:49:46;;;;;;;7.13;4.97;;;;;;;;;;5499686;25;20335;-71
2024/04/13 04:52:12;;;;;;;8.10;5.10;;;;;;;;;;5498425;25;20232;-70
2024/04/13 04:54:38;;;;;;;8.15;4.90;;;;;;;;;;5498055;25;20225;-71
2024/04/13 04:57:04;;;;;;;8.75;4.85;;;;;;;;;;5503524;26;20530;-71
2024/04/13 04:59:30;;;;;;;10.93;5.50;;;;;;;;;;5492261;26;20228;-70
2024/04/13 05:01:56;;;;;;;12.45;5.13;;;;;;;;;;5492726;26;20266;-71
2024/04/13 05:04:22;;;;;;;7.82;5.13;;;;;;;;;;5494083;26;20233;-71
2024/04/13 05:06:47;;;;;;;6.20;4.93;;;;;;;;;;5495106;26;20323;-71
2024/04/13 05:09:13;;;;;;;7.35;4.68;;;;;;;;;;5482000;26;20296;-71
2024/04/13 05:11:38;;;;;;;8.25;4.82;;;;;;;;;;5481282;26;20662;-70
2024/04/13 05:14:05;;;;;;;6.78;4.72;;;;;;;;;;5475010;26;20229;-71
2024/04/13 05:16:31;;;;;;;7.68;4.60;;;;;;;;;;5462340;26;20718;-72
2024/04/13 05:18:56;;;;;;;7.75;4.78;;;;;;;;;;5447604;26;20234;-69
2024/04/13 05:21:22;;;;;;;9.30;4.90;;;;;;;;;;5465569;26;20713;-71
2024/04/13 05:23:47;;;;;;;6.43;4.38;;;;;;;;;;5461274;26;20283;-72
2024/04/13 05:26:13;;;;;;;8.07;4.38;;;;;;;;;;5475689;26;20228;-72
2024/04/13 05:28:38;;;;;;;7.00;4.57;;;;;;;;;;5466006;26;20234;-72
2024/04/13 05:31:09;;;;;;;7.80;5.05;;;;;;;;;;5467379;26;20672;-71
2024/04/13 05:33:35;;;;;;;6.50;4.47;;;;;;;;;;5467584;26;20246;-72
2024/04/13 05:36:02;;;;;;;8.23;4.18;;;;;;;;;;5468255;26;20284;-69
2024/04/13 05:38:27;;;;;;;7.65;5.05;;;;;;;;;;5480626;26;20232;-71
2024/04/13 05:40:53;;;;;;;7.40;4.40;;;;;;;;;;5449543;26;20245;-69
2024/04/13 05:43:19;;;;;;;9.20;4.45;;;;;;;;;;5498419;26;20235;-71
2024/04/13 05:45:45;;;;;;;9.93;4.68;;;;;;;;;;5457411;26;20245;-70
2024/04/13 05:48:11;;;;;;;7.25;4.35;;;;;;;;;;5455532;26;20601;-70
2024/04/13 05:50:36;;;;;;;8.05;4.07;;;;;;;;;;5471670;26;20252;-70
2024/04/13 05:53:02;;;;;;;7.97;4.53;;;;;;;;;;5468783;26;20230;-70
2024/04/13 05:55:27;;;;;;;9.32;4.30;;;;;;;;;;5462151;26;20796;-70
2024/04/13 05:57:53;;;;;;;6.00;4.63;;;;;;;;;;5476045;26;20623;-70
2024/04/13 06:00:18;;;;;;;5.25;3.88;;;;;;;;;;5457548;26;20237;-70
2024/04/13 06:02:44;;;;;;;5.70;3.72;;;;;;;;;;5471426;26;20320;-71
2024/04/13 06:05:09;;;;;;;6.88;4.45;;;;;;;;;;5498400;25;20237;-70
2024/04/13 06:07:34;;;;;;;5.75;3.67;;;;;;;;;;5476509;26;20300;-70
2024/04/13 06:10:01;;;;;;;9.35;3.78;;;;;;;;;;5460109;26;20720;-70
2024/04/13 06:12:27;;;;;;;9.07;4.32;;;;;;;;;;5461425;26;20580;-70
2024/04/13 06:14:52;;;;;;;5.10;3.78;;;;;;;;;;5478279;26;20283;-70
2024/04/13 06:17:19;;;;;;;6.50;3.45;;;;;;;;;;5465005;26;20236;-71
2024/04/13 06:19:45;;;;;;;6.97;4.00;;;;;;;;;;5445759;26;20253;-69
2024/04/13 06:22:10;;;;;;;5.10;3.50;;;;;;;;;;5450690;26;20787;-70
2024/04/13 06:24:36;;;;;;;6.30;4.22;;;;;;;;;;5475728;26;20357;-70
2024/04/13 06:27:03;;;;;;;6.22;3.60;;;;;;;;;;5498201;25;20259;-70
2024/04/13 06:29:28;;;;;;;6.43;4.00;;;;;;;;;;5447461;26;20242;-70
2024/04/13 06:31:54;;;;;;;5.53;3.42;;;;;;;;;;5486227;26;20828;-70
2024/04/13 06:34:19;;;;;;;5.75;3.85;;;;;;;;;;5476018;26;20237;-70
2024/04/13 06:36:45;;;;;;;8.55;4.60;;;;;;;;;;5473750;26;20234;-70
2024/04/13 06:39:14;;;;;;;8.18;3.80;;;;;;;;;;5461259;26;20234;-70
2024/04/13 06:41:40;;;;;;;7.45;4.28;;;;;;;;;;5463891;26;20267;-71
2024/04/13 06:44:05;;;;;;;6.82;4.35;;;;;;;;;;5447619;26;20245;-70
2024/04/13 06:46:31;;;;;;;9.77;4.63;;;;;;;;;;5477210;26;20272;-70
2024/04/13 06:48:56;;;;;;;7.40;4.30;;;;;;;;;;5492957;25;20772;-70
2024/04/13 06:51:22;;;;;;;7.43;4.40;;;;;;;;;;5503349;26;20234;-71
2024/04/13 06:53:48;;;;;;;6.95;4.28;;;;;;;;;;5499101;25;20541;-70
2024/04/13 06:56:14;;;;;;;9.30;4.35;;;;;;;;;;5498579;26;20237;-70
2024/04/13 06:58:40;;;;;;;5.88;3.97;;;;;;;;;;5504310;25;20328;-71
2024/04/13 07:01:05;;;;;;;5.65;4.03;;;;;;;;;;5477383;26;20681;-70
2024/04/13 07:03:31;;;;;;;6.68;3.92;;;;;;;;;;5480575;25;20242;-70
2024/04/13 07:05:58;;;;;;;9.23;4.50;;;;;;;;;;5463710;26;20237;-71
2024/04/13 07:08:24;;;;;;;6.38;4.32;;;;;;;;;;5451785;26;20647;-70
2024/04/13 07:10:50;;;;;;;7.10;3.78;;;;;;;;;;5461279;26;20336;-71
2024/04/13 07:13:16;;;;;;;9.18;4.65;;;;;;;;;;5461304;26;20260;-70
2024/04/13 07:15:41;;;;;;;9.02;4.95;;;;;;;;;;5485067;26;20229;-70
2024/04/13 07:18:08;;;;;;;6.95;4.45;;;;;;;;;;5467273;26;20664;-70
2024/04/13 07:20:35;;;;;;;8.45;4.53;;;;;;;;;;5465199;26;20283;-70
2024/04/13 07:23:00;;;;;;;7.22;4.55;;;;;;;;;;5429160;26;20260;-71
2024/04/13 07:25:26;;;;;;;8.13;4.30;;;;;;;;;;5483002;26;20291;-70
2024/04/13 07:27:52;;;;;;;5.97;4.03;;;;;;;;;;5464996;26;20307;-70
2024/04/13 07:30:17;;;;;;;8.25;4.65;;;;;;;;;;5452757;26;20578;-70
2024/04/13 07:32:42;;;;;;;5.68;4.40;;;;;;;;;;5457782;26;20334;-70
2024/04/13 07:35:08;;;;;;;7.97;4.60;;;;;;;;;;5451166;26;20348;-70
2024/04/13 07:37:33;;;;;;;8.95;4.07;;;;;;;;;;5476271;26;20698;-70
2024/04/13 07:39:59;;;;;;;8.93;4.30;;;;;;;;;;5454256;25;20238;-70
2024/04/13 07:42:24;;;;;;;6.70;4.43;;;;;;;;;;5454357;26;20393;-70
2024/04/13 07:44:50;;;;;;;7.93;5.15;;;;;;;;;;5446966;26;20585;-70
2024/04/13 07:47:15;;;;;;;8.65;4.38;;;;;;;;;;5443289;26;20363;-70
2024/04/13 07:49:41;;;;;;;6.82;3.83;;;;;;;;;;5478765;26;20250;-70
2024/04/13 07:52:06;;;;;;;6.65;4.05;;;;;;;;;;5458016;26;20268;-70
2024/04/13 07:54:33;;;;;;;5.50;4.03;;;;;;;;;;5469089;26;20354;-70
2024/04/13 07:56:58;;;;;;;7.68;4.43;;;;;;;;;;5463770;26;20291;-72
2024/04/13 07:59:23;;;;;;;6.57;4.07;;;;;;;;;;5472901;26;20764;-71
2024/04/13 08:01:49;;;;;;;6.88;4.22;;;;;;;;;;5476644;26;20276;-71
2024/04/13 08:04:15;;;;;;;6.70;4.45;;;;;;;;;;5449850;26;21136;-70
2024/04/13 08:06:40;;;;;;;8.23;4.25;;;;;;;;;;5476986;26;20696;-71
2024/04/13 08:09:05;;;;;;;8.20;3.92;;;;;;;;;;5473999;26;20279;-71
2024/04/13 08:11:32;;;;;;;7.90;4.70;;;;;;;;;;5469663;26;20279;-72
2024/04/13 08:14:01;;;;;;;8.35;4.18;;;;;;;;;;5473966;26;20304;-70
2024/04/13 08:16:26;;;;;;;5.10;3.90;;;;;;;;;;5473545;26;20236;-71
2024/04/13 08:18:52;;;;;;;7.32;4.15;;;;;;;;;;5464222;26;20846;-71
2024/04/13 08:21:17;;;;;;;7.20;3.97;;;;;;;;;;5484797;25;20648;-71
2024/04/13 08:23:43;;;;;;;7.35;3.50;;;;;;;;;;5501823;25;20256;-71
2024/04/13 08:26:08;;;;;;;6.00;3.60;;;;;;;;;;5469002;26;20241;-72
2024/04/13 08:28:34;;;;;;;6.78;3.55;;;;;;;;;;5482093;25;20237;-70
2024/04/13 08:31:04;;;;;;;5.85;3.75;;;;;;;;;;5480722;26;20340;-72
2024/04/13 08:33:30;;;;;;;7.90;3.88;;;;;;;;;;5488858;26;20252;-72
2024/04/13 08:36:06;;;;;;;7.60;3.90;;;;;;;;;;5487939;26;20613;-69
2024/04/13 08:38:32;;;;;;;5.55;3.72;;;;;;;;;;5464446;26;20275;-71
2024/04/13 08:41:03;;;;;;;5.50;3.60;;;;;;;;;;5461256;26;20344;-72
2024/04/13 08:43:28;;;;;;;6.72;3.95;;;;;;;;;;5477064;26;20280;-71
2024/04/13 08:46:03;;;;;;;6.78;4.43;;;;;;;;;;5475020;26;20293;-72
2024/04/13 08:48:29;;;;;;;6.00;4.05;;;;;;;;;;5487088;26;20276;-71
2024/04/13 08:50:56;;;;;;;5.90;3.58;;;;;;;;;;5481157;26;20245;-72
2024/04/13 08:53:25;;;;;;;7.50;4.22;;;;;;;;;;5465491;26;20283;-72
2024/04/13 08:55:53;;;;;;;7.07;4.43;;;;;;;;;;5473425;26;20348;-72
2024/04/13 08:58:20;;;;;;;6.88;4.15;;;;;;;;;;5481662;26;20298;-71
2024/04/13 09:00:51;;;;;;;11.30;4.88;;;;;;;;;;5480572;25;20689;-72
2024/04/13 09:03:19;;;;;;;7.78;4.25;;;;;;;;;;5480611;26;20728;-71
2024/04/13 09:05:44;;;;;;;7.95;3.78;;;;;;;;;;5469664;26;20237;-71
2024/04/13 09:08:13;;;;;;;7.75;3.60;;;;;;;;;;5483552;26;20240;-71
2024/04/13 09:10:42;;;;;;;7.65;3.67;;;;;;;;;;5465808;26;20352;-72
2024/04/13 09:13:07;;;;;;;7.00;3.50;;;;;;;;;;5466963;26;20238;-72
2024/04/13 09:15:33;;;;;;;6.07;3.92;;;;;;;;;;5464207;26;20329;-72
2024/04/13 09:17:58;;;;;;;5.45;3.78;;;;;;;;;;5455870;26;20434;-72
2024/04/13 09:20:24;;;;;;;7.15;4.30;;;;;;;;;;5474210;26;20332;-72
2024/04/13 09:22:53;;;;;;;7.38;4.05;;;;;;;;;;5468695;26;20634;-71
2024/04/13 09:25:22;;;;;;;6.20;3.80;;;;;;;;;;5477491;26;20332;-71
2024/04/13 09:28:17;;;;;;;5.50;3.78;;;;;;;;;;5464379;26;20611;-70
2024/04/13 09:30:46;;;;;;;6.05;4.13;;;;;;;;;;5450142;26;20321;-71
2024/04/13 09:33:13;;;;;;;5.82;4.03;;;;;;;;;;5475010;26;20264;-71
2024/04/13 09:35:38;;;;;;;6.60;3.97;;;;;;;;;;5482532;26;20656;-75
2024/04/13 09:38:04;;;;;;;9.20;4.60;;;;;;;;;;5476172;26;20328;-71
2024/04/13 09:40:34;;;;;;;8.00;4.35;;;;;;;;;;5474450;26;20229;-71
2024/04/13 09:43:00;;;;;;;10.38;4.28;;;;;;;;;;5469026;26;20279;-70
2024/04/13 09:45:26;;;;;;;6.18;4.60;;;;;;;;;;5481052;26;20624;-71
2024/04/13 09:47:53;;;;;;;5.47;4.00;;;;;;;;;;5479738;26;20240;-71
2024/04/13 09:50:19;;;;;;;7.43;4.85;;;;;;;;;;5498575;26;20248;-71
2024/04/13 09:52:44;;;;;;;8.25;4.35;;;;;;;;;;5472292;26;20344;-70
2024/04/13 09:55:11;;;;;;;7.28;4.55;;;;;;;;;;5465975;26;20380;-70
2024/04/13 09:57:37;;;;;;;6.35;4.03;;;;;;;;;;5469096;26;20276;-71
2024/04/13 10:00:03;;;;;;;8.07;4.32;;;;;;;;;;5444531;26;20696;-71
2024/04/13 10:02:30;;;;;;;6.20;4.70;;;;;;;;;;5474348;26;20279;-71
2024/04/13 10:04:56;;;;;;;6.95;4.97;;;;;;;;;;5457487;26;20237;-72
2024/04/13 10:07:24;;;;;;;8.50;4.65;;;;;;;;;;5480328;26;20594;-71
2024/04/13 10:09:56;;;;;;;5.72;4.60;;;;;;;;;;5474270;26;20288;-71
2024/04/13 10:12:26;;;;;;;7.70;4.82;;;;;;;;;;5470671;26;20249;-70
2024/04/13 10:14:52;;;;;;;9.73;4.90;;;;;;;;;;5480931;26;20306;-70
2024/04/13 10:17:19;;;;;;;9.82;5.03;;;;;;;;;;5480866;26;20300;-70
2024/04/13 10:19:45;;;;;;;6.80;5.07;;;;;;;;;;5469879;26;20584;-70
2024/04/13 10:22:12;;;;;;;11.13;6.38;;;;;;;;;;5475986;26;20346;-71
2024/04/13 10:24:43;;;;;;;10.25;5.38;;;;;;;;;;5462545;26;21073;-70
2024/04/13 10:27:10;;;;;;;7.63;5.30;;;;;;;;;;5480356;26;20232;-72
2024/04/13 10:29:40;;;;;;;10.63;6.43;;;;;;;;;;5468509;26;20275;-71
2024/04/13 10:32:21;;;;;;;10.13;5.68;;;;;;;;;;5480878;26;20287;-70
2024/04/13 10:34:46;;;;;;;7.95;5.78;;;;;;;;;;5481368;26;20296;-70
2024/04/13 10:37:30;;;;;;;9.05;6.30;;;;;;;;;;5492656;26;20656;-71
2024/04/13 10:39:57;;;;;;;9.07;5.93;;;;;;;;;;5474979;26;20677;-72
2024/04/13 10:42:38;;;;;;;10.82;6.88;;;;;;;;;;5458530;26;20342;-70
2024/04/13 10:45:19;;;;;;;10.63;6.40;;;;;;;;;;5457302;26;20238;-70
2024/04/13 10:47:46;;;;;;;10.25;6.40;;;;;;;;;;5468550;26;20256;-71
2024/04/13 10:50:16;;;;;;;9.65;6.95;;;;;;;;;;5462065;26;20279;-70
2024/04/13 10:52:43;;;;;;;10.48;6.63;;;;;;;;;;5442700;26;20249;-70
2024/04/13 10:55:12;;;;;;;14.27;7.20;;;;;;;;;;5443865;26;20241;-71
2024/04/13 10:57:40;;;;;;;9.68;7.15;;;;;;;;;;5445274;26;20249;-71
2024/04/13 11:00:08;;;;;;;10.52;7.32;;;;;;;;;;5459202;26;20721;-71
2024/04/13 11:02:36;;;;;;;9.48;6.60;;;;;;;;;;5445358;26;20790;-71
2024/04/13 11:05:01;;;;;;;13.52;7.40;;;;;;;;;;5445601;26;20687;-71
2024/04/13 11:07:27;;;;;;;13.38;7.47;;;;;;;;;;5486383;26;20277;-71
2024/04/13 11:09:53;;;;;;;12.65;7.18;;;;;;;;;;5483823;26;20246;-71
2024/04/13 11:12:18;;;;;;;10.57;8.02;;;;;;;;;;5471201;26;20240;-70
2024/04/13 11:14:43;;;;;;;11.48;7.63;;;;;;;;;;5472996;26;20291;-71
2024/04/13 11:17:09;;;;;;;10.35;6.97;;;;;;;;;;5467410;26;20249;-70
2024/04/13 11:19:36;;;;;;;9.98;7.10;;;;;;;;;;5482682;26;20236;-70
2024/04/13 11:22:02;;;;;;;9.55;6.55;;;;;;;;;;5464801;26;20326;-70
2024/04/13 11:24:29;;;;;;;9.15;7.28;;;;;;;;;;5440345;26;20263;-70
2024/04/13 11:26:55;;;;;;;24.50;7.72;;;;;;;;;;5461576;26;20232;-70
2024/04/13 11:29:21;;;;;;;10.98;7.95;;;;;;;;;;5459686;26;20322;-72
2024/04/13 11:31:46;;;;;;;11.50;6.82;;;;;;;;;;5472824;26;20284;-71
2024/04/13 11:34:12;;;;;;;12.63;6.72;;;;;;;;;;5468028;26;20233;-71
2024/04/13 11:36:38;;;;;;;10.70;7.90;;;;;;;;;;5451017;26;20698;-71
2024/04/13 11:39:03;;;;;;;12.48;7.80;;;;;;;;;;5491050;26;20240;-71
2024/04/13 11:41:29;;;;;;;13.20;7.90;;;;;;;;;;5479671;26;20344;-71
2024/04/13 11:43:56;;;;;;;10.55;8.30;;;;;;;;;;5452238;26;20494;-71
2024/04/13 11:46:21;;;;;;;11.82;8.13;;;;;;;;;;5461676;26;20236;-71
2024/04/13 11:48:48;;;;;;;14.32;8.57;;;;;;;;;;5470694;26;20279;-70
2024/04/13 11:51:14;;;;;;;12.48;8.15;;;;;;;;;;5447469;26;20273;-69
2024/04/13 11:53:39;;;;;;;12.82;8.13;;;;;;;;;;5448325;26;20234;-70
2024/04/13 11:56:07;;;;;;;14.45;8.57;;;;;;;;;;5448897;26;20284;-70
2024/04/13 11:58:33;;;;;;;15.60;8.13;;;;;;;;;;5473184;26;20279;-71
2024/04/13 12:00:59;;;;;;;15.77;7.32;;;;;;;;;;5454470;26;20245;-70
2024/04/13 12:03:24;;;;;;;10.25;7.47;;;;;;;;;;5468561;26;20267;-69
2024/04/13 12:05:50;;;;;;;10.95;7.63;;;;;;;;;;5453483;26;20685;-71
2024/04/13 12:08:16;;;;;;;15.30;7.10;;;;;;;;;;5451166;26;20339;-71
2024/04/13 12:10:41;;;;;;;12.68;7.35;;;;;;;;;;5465857;26;20259;-70
2024/04/13 12:13:07;;;;;;;10.27;7.43;;;;;;;;;;5469709;26;20711;-71
2024/04/13 12:15:32;;;;;;;9.23;7.28;;;;;;;;;;5476939;26;20242;-71
2024/04/13 12:17:58;;;;;;;8.85;6.55;;;;;;;;;;5477903;26;20236;-72
2024/04/13 12:20:23;;;;;;;9.40;6.80;;;;;;;;;;5479066;26;20736;-72
2024/04/13 12:22:49;;;;;;;11.85;6.63;;;;;;;;;;5469112;26;20342;-70
2024/04/13 12:25:14;;;;;;;12.70;6.93;;;;;;;;;;5483357;26;20384;-70
2024/04/13 12:27:40;;;;;;;10.52;6.90;;;;;;;;;;5481144;26;20325;-70
2024/04/13 12:30:07;;;;;;;11.88;6.63;;;;;;;;;;5475008;26;20414;-70
2024/04/13 12:32:33;;;;;;;13.23;7.60;;;;;;;;;;5436350;26;20275;-71
2024/04/13 12:34:58;;;;;;;9.68;6.75;;;;;;;;;;5456272;26;20257;-71
2024/04/13 12:37:23;;;;;;;11.13;6.57;;;;;;;;;;5466180;26;20249;-71
2024/04/13 12:39:49;;;;;;;7.68;5.90;;;;;;;;;;5445709;26;20296;-71
2024/04/13 12:42:14;;;;;;;9.27;6.78;;;;;;;;;;5457756;26;20236;-70
2024/04/13 12:44:40;;;;;;;11.40;6.00;;;;;;;;;;5470387;26;20288;-71
2024/04/13 12:47:06;;;;;;;9.85;5.20;;;;;;;;;;5488625;25;20245;-70
2024/04/13 12:49:32;;;;;;;6.53;4.80;;;;;;;;;;5482822;26;20241;-72
2024/04/13 12:51:58;;;;;;;8.38;4.28;;;;;;;;;;5457845;26;20249;-68
2024/04/13 12:54:24;;;;;;;6.82;3.78;;;;;;;;;;5481586;26;20736;-70
2024/04/13 12:56:49;;;;;;;6.93;3.47;;;;;;;;;;5489666;26;20256;-73
2024/04/13 12:59:15;;;;;;;7.30;4.05;;;;;;;;;;5473627;26;20339;-70
2024/04/13 13:01:40;;;;;;;7.38;4.05;;;;;;;;;;5481530;26;20676;-69
2024/04/13 13:04:06;;;;;;;7.93;3.72;;;;;;;;;;5480008;26;20233;-72
2024/04/13 13:06:31;;;;;;;8.43;3.47;;;;;;;;;;5480260;26;20249;-72
2024/04/13 13:08:57;;;;;;;8.88;3.40;;;;;;;;;;5447693;26;20638;-71
2024/04/13 13:11:22;;;;;;;9.35;3.92;;;;;;;;;;5447273;26;20789;-70
2024/04/13 13:13:48;;;;;;;4.50;3.03;;;;;;;;;;5469036;26;20240;-70
2024/04/13 13:16:14;;;;;;;7.93;3.50;;;;;;;;;;5484423;26;20346;-72
2024/04/13 13:18:39;;;;;;;8.43;2.92;;;;;;;;;;5463526;26;20328;-70
2024/04/13 13:21:04;;;;;;;4.82;2.95;;;;;;;;;;5456037;26;20242;-71
2024/04/13 13:23:30;;;;;;;5.03;2.80;;;;;;;;;;5473734;26;20284;-70
2024/04/13 13:25:56;;;;;;;6.88;2.75;;;;;;;;;;5474135;26;20283;-70
2024/04/13 13:28:21;;;;;;;5.38;2.85;;;;;;;;;;5481360;26;20344;-69
2024/04/13 13:30:47;;;;;;;5.53;3.17;;;;;;;;;;5479918;26;20308;-70
2024/04/13 13:33:12;;;;;;;6.85;3.20;;;;;;;;;;5480573;26;20567;-71
2024/04/13 13:35:40;;;;;;;5.82;2.75;;;;;;;;;;5473863;26;20395;-71
2024/04/13 13:38:06;;;;;;;7.00;2.97;;;;;;;;;;5462143;26;20233;-72
2024/04/13 13:40:32;;;;;;;4.95;2.70;;;;;;;;;;5479136;26;20237;-71
2024/04/13 13:42:57;;;;;;;4.22;2.40;;;;;;;;;;5478446;26;20292;-70
2024/04/13 13:45:22;;;;;;;5.50;2.92;;;;;;;;;;5481031;26;20239;-70
2024/04/13 13:47:48;;;;;;;7.45;3.42;;;;;;;;;;5480998;26;20608;-70
2024/04/13 13:50:15;;;;;;;4.28;2.40;;;;;;;;;;5447380;26;20304;-71
2024/04/13 13:52:41;;;;;;;4.82;2.70;;;;;;;;;;5492111;26;20751;-71
2024/04/13 13:55:06;;;;;;;5.60;2.58;;;;;;;;;;5477223;26;20264;-71
2024/04/13 13:57:32;;;;;;;5.55;2.67;;;;;;;;;;5478926;26;20256;-71
2024/04/13 13:59:57;;;;;;;5.72;2.70;;;;;;;;;;5499691;26;20259;-71
2024/04/13 14:02:22;;;;;;;4.57;2.75;;;;;;;;;;5465594;26;20228;-70
2024/04/13 14:04:49;;;;;;;6.85;2.80;;;;;;;;;;5474982;26;20310;-71
2024/04/13 14:07:14;;;;;;;6.95;3.22;;;;;;;;;;5474992;26;20241;-71
2024/04/13 14:09:40;;;;;;;7.78;2.33;;;;;;;;;;5454860;26;20559;-71
2024/04/13 14:12:07;;;;;;;5.55;2.42;;;;;;;;;;5468740;26;20724;-71
2024/04/13 14:14:32;;;;;;;5.63;2.60;;;;;;;;;;5495222;26;20253;-70
2024/04/13 14:16:59;;;;;;;6.65;2.80;;;;;;;;;;5509809;25;21085;-70
2024/04/13 14:19:25;;;;;;;9.48;2.50;;;;;;;;;;5456658;26;20270;-70
2024/04/13 14:21:50;;;;;;;6.18;2.60;;;;;;;;;;5469510;26;20342;-71
2024/04/13 14:24:16;;;;;;;6.60;2.80;;;;;;;;;;5467424;26;20534;-69
2024/04/13 14:26:41;;;;;;;4.70;2.58;;;;;;;;;;5486106;26;20275;-70
2024/04/13 14:29:06;;;;;;;5.10;2.08;;;;;;;;;;5490755;25;20272;-71
2024/04/13 14:31:32;;;;;;;5.75;2.25;;;;;;;;;;5457405;26;20234;-70
2024/04/13 14:33:57;;;;;;;6.10;2.33;;;;;;;;;;5470907;26;20651;-71
2024/04/13 14:36:23;;;;;;;5.38;2.20;;;;;;;;;;5461571;26;20283;-72